NATURA VA

 INFORMACIÓN METAR y TAF
METAR FOR GMMX
ADDS - METARS form results

(2328 UTC 17 June 2019)
Data provider http://aviationweather.gov/metar/data/
 
METAR text: GMMX 172300Z 24005KT 7000 NSC 19/11 Q1019 NOSIG
Conditions at: GMMX (MARRAKECH/MENARA, MA) observed 2300 UTC 17 June 2019
Temperature: 19.0°C (66°F)
Dewpoint: 11.0°C (52°F) [RH = 60%]
Pressure (altimeter): 30.09 inches Hg (1019.0 mb)
Winds: from the WSW (240 degrees) at 6 MPH (5 knots; 2.6 m/s)
Visibility: 4 miles ( 7 km)
Ceiling: at least 12,000 feet AGL
Clouds: sky clear below 12,000 feet AGL
Weather: no significant weather observed at this time

METAR text: GMMX 172230Z 24005KT 7000 NSC 20/12 Q1019 NOSIG
Conditions at: GMMX (MARRAKECH/MENARA, MA) observed 2230 UTC 17 June 2019
Temperature: 20.0°C (68°F)
Dewpoint: 12.0°C (54°F) [RH = 60%]
Pressure (altimeter): 30.09 inches Hg (1019.0 mb)
Winds: from the WSW (240 degrees) at 6 MPH (5 knots; 2.6 m/s)
Visibility: 4 miles ( 7 km)
Ceiling: at least 12,000 feet AGL
Clouds: sky clear below 12,000 feet AGL
Weather: no significant weather observed at this time

Forecast for: GMMX (MARRAKECH/MENARA, MA)
Text: TAF GMMX 172300Z 1800/1906 30006KT 8000 NSC
Forecast period: 0000 UTC 18 June 2019 to 0600 UTC 19 June 2019
Forecast type: FROM: standard forecast or significant change
Winds: from the WNW (300 degrees) at 7 MPH (6 knots; 3.1 m/s)
Visibility: 5 miles (8 km)
Ceiling: unknown
Clouds: missing
Weather: no significant weather forecast for this period
Text: TEMPO 1815/1821 36016KT
Forecast period: 1500 to 2100 UTC 18 June 2019
Forecast type: TEMPORARY: The following changes expected for less than half the time period
Winds: from the N (360 degrees) at 18 MPH (16 knots; 8.2 m/s)
Visibility: missing
Ceiling: unknown
Clouds: missing
Weather: no significant weather forecast for this period

 MAPA DE AEROPUERTO

 INFORMACIÓN DE PISTA
Pista 10 Longitud 10170 ft Ancho 148 ft
Elevación 1506 ft Umbral desplazado 918 ft Rumbo de pista 96
Pista 28 Longitud 10170 ft Ancho 148 ft
Elevación 1545 ft Umbral desplazado 0 ft Rumbo de pista 276

 FRECUANCIAS DEL AEROPUERTO
Tipo APP Nombre MARRAKECH Frecuencia 119.7 MHZ
Tipo TWR Nombre MARRAKECH Frecuencia 118.7 MHZ

 RADIO AYUDAS DEL AEROPUERTO
Tipo NDB Nombre Marrakech Frecuencia 267 KHZ
Tipo VOR-DME Nombre Marrakech Frecuencia 113300 KHZ



Powered by Virtual Airlines Manager [v2.6.2]